Aviation Digital Data Service (ADDS)

Output produced by METARs form (2125 UTC 20 October 2018)
found at http://www.aviationweather.gov/metar/data/
 
METAR text: KUAO 202053Z 05006KT 10SM CLR 20/08 A3006 RMK AO2 SLP179 T02000078 58025
Conditions at: KUAO (AURORA , OR, US) observed 2053 UTC 20 October 2018
Temperature: 20.0°C (68°F)
Dewpoint: 7.8°C (46°F) [RH = 45%]
Pressure (altimeter): 30.06 inches Hg (1018.0 mb)
[Sea-level pressure: 1017.9 mb]
Winds: from the NE (50 degrees) at 7 MPH (6 knots; 3.1 m/s)
Visibility: 10 or more miles (16+ km)
Ceiling: at least 12,000 feet AGL
Clouds: sky clear below 12,000 feet AGL
Weather: no significant weather observed at this time

METAR text: KUAO 201953Z 02006KT 10SM CLR 18/08 A3010 RMK AO2 SLP190 T01830078
Conditions at: KUAO (AURORA , OR, US) observed 1953 UTC 20 October 2018
Temperature: 18.3°C (65°F)
Dewpoint: 7.8°C (46°F) [RH = 50%]
Pressure (altimeter): 30.10 inches Hg (1019.4 mb)
[Sea-level pressure: 1019.0 mb]
Winds: from the NNE (20 degrees) at 7 MPH (6 knots; 3.1 m/s)
Visibility: 10 or more miles (16+ km)
Ceiling: at least 12,000 feet AGL
Clouds: sky clear below 12,000 feet AGL
Weather: no significant weather observed at this time

Forecast for: KUAO (AURORA , OR, US)
Text: KUAO 201723Z 2018/2118 03005KT P6SM BCFG SCT006
Forecast period: 1800 to 1900 UTC 20 October 2018
Forecast type: FROM: standard forecast or significant change
Winds: from the NNE (30 degrees) at 6 MPH (5 knots; 2.6 m/s)
Visibility: 6 or more miles 10+ km)
Ceiling: at least 12,000 feet AGL
Clouds: scattered clouds at 600 feet AGL
Weather: BCFG  (patches of fog)
Text: FM201900 03006KT P6SM SKC
Forecast period: 1900 UTC 20 October 2018 to 1200 UTC 21 October 2018
Forecast type: FROM: standard forecast or significant change
Winds: from the NNE (30 degrees) at 7 MPH (6 knots; 3.1 m/s)
Visibility: 6 or more miles 10+ km)
Clouds: clear skies
Weather: no significant weather forecast for this period
Text: FM211200 VRB03KT 2SM BR SCT005
Forecast period: 1200 to 1800 UTC 21 October 2018
Forecast type: FROM: standard forecast or significant change
Winds: variable direction winds at 3 MPH (3 knots; 1.5 m/s)
Visibility: 2.00 miles (3.22 km)
Ceiling: at least 12,000 feet AGL
Clouds: scattered clouds at 500 feet AGL
Weather: BR  (mist)